sensor_id;sensor_type;location;lat;lon;timestamp;temperature;humidity
1888;DHT22;944;51.574;6.980;2022-08-04T00:02:34;23.70;99.90
1888;DHT22;944;51.574;6.980;2022-08-04T00:05:09;23.90;99.90
1888;DHT22;944;51.574;6.980;2022-08-04T00:07:44;23.80;99.90
1888;DHT22;944;51.574;6.980;2022-08-04T00:10:17;23.80;99.90
1888;DHT22;944;51.574;6.980;2022-08-04T00:12:50;23.80;99.90
1888;DHT22;944;51.574;6.980;2022-08-04T00:15:28;23.80;99.90
1888;DHT22;944;51.574;6.980;2022-08-04T00:18:03;23.80;99.90
1888;DHT22;944;51.574;6.980;2022-08-04T00:20:43;23.80;99.90
1888;DHT22;944;51.574;6.980;2022-08-04T00:23:27;23.90;99.90
1888;DHT22;944;51.574;6.980;2022-08-04T00:25:59;23.90;99.90
1888;DHT22;944;51.574;6.980;2022-08-04T00:28:27;23.90;99.90
1888;DHT22;944;51.574;6.980;2022-08-04T00:31:03;23.70;99.90
1888;DHT22;944;51.574;6.980;2022-08-04T00:33:31;23.80;99.90
1888;DHT22;944;51.574;6.980;2022-08-04T00:36:03;23.90;99.90
1888;DHT22;944;51.574;6.980;2022-08-04T00:38:31;23.90;99.90
1888;DHT22;944;51.574;6.980;2022-08-04T00:41:18;24.10;99.90
1888;DHT22;944;51.574;6.980;2022-08-04T00:44:29;24.00;99.90
1888;DHT22;944;51.574;6.980;2022-08-04T00:47:24;23.90;99.90
1888;DHT22;944;51.574;6.980;2022-08-04T00:50:04;24.00;99.90
1888;DHT22;944;51.574;6.980;2022-08-04T00:52:55;24.00;99.90
1888;DHT22;944;51.574;6.980;2022-08-04T00:55:50;24.00;99.90
1888;DHT22;944;51.574;6.980;2022-08-04T00:58:42;24.00;99.90
1888;DHT22;944;51.574;6.980;2022-08-04T01:01:22;24.00;99.90
1888;DHT22;944;51.574;6.980;2022-08-04T01:04:08;24.10;99.90
1888;DHT22;944;51.574;6.980;2022-08-04T01:06:48;24.00;99.90
1888;DHT22;944;51.574;6.980;2022-08-04T01:09:32;24.10;99.90
1888;DHT22;944;51.574;6.980;2022-08-04T01:12:36;24.10;99.90
1888;DHT22;944;51.574;6.980;2022-08-04T01:37:06;23.80;99.90
1888;DHT22;944;51.574;6.980;2022-08-04T01:39:41;23.80;99.90
1888;DHT22;944;51.574;6.980;2022-08-04T01:42:17;23.70;99.90
1888;DHT22;944;51.574;6.980;2022-08-04T01:44:47;23.70;99.90
1888;DHT22;944;51.574;6.980;2022-08-04T01:47:18;23.90;99.90
1888;DHT22;944;51.574;6.980;2022-08-04T01:49:49;23.70;99.90
1888;DHT22;944;51.574;6.980;2022-08-04T01:52:42;23.80;99.90
1888;DHT22;944;51.574;6.980;2022-08-04T02:06:45;23.80;99.90
1888;DHT22;944;51.574;6.980;2022-08-04T02:10:05;23.70;99.90
1888;DHT22;944;51.574;6.980;2022-08-04T02:12:48;23.70;99.90
1888;DHT22;944;51.574;6.980;2022-08-04T02:15:27;23.70;99.90
1888;DHT22;944;51.574;6.980;2022-08-04T02:18:01;23.70;99.90
1888;DHT22;944;51.574;6.980;2022-08-04T02:20:33;23.60;99.90
1888;DHT22;944;51.574;6.980;2022-08-04T02:23:04;23.60;99.90
1888;DHT22;944;51.574;6.980;2022-08-04T02:25:45;23.50;99.90
1888;DHT22;944;51.574;6.980;2022-08-04T02:28:29;23.50;99.90
1888;DHT22;944;51.574;6.980;2022-08-04T02:35:08;23.50;99.90
1888;DHT22;944;51.574;6.980;2022-08-04T02:37:48;23.50;99.90
1888;DHT22;944;51.574;6.980;2022-08-04T02:40:23;23.40;99.90
1888;DHT22;944;51.574;6.980;2022-08-04T02:42:57;23.40;99.90
1888;DHT22;944;51.574;6.980;2022-08-04T02:45:29;23.40;99.90
1888;DHT22;944;51.574;6.980;2022-08-04T02:48:07;23.40;99.90
1888;DHT22;944;51.574;6.980;2022-08-04T02:50:36;23.40;99.90
1888;DHT22;944;51.574;6.980;2022-08-04T02:53:10;23.40;99.90
1888;DHT22;944;51.574;6.980;2022-08-04T02:55:43;23.30;99.90
1888;DHT22;944;51.574;6.980;2022-08-04T02:58:19;23.50;99.90
1888;DHT22;944;51.574;6.980;2022-08-04T03:00:50;23.50;99.90
1888;DHT22;944;51.574;6.980;2022-08-04T03:23:41;23.20;99.90
1888;DHT22;944;51.574;6.980;2022-08-04T03:26:59;23.20;99.90
1888;DHT22;944;51.574;6.980;2022-08-04T03:30:04;23.10;99.90
1888;DHT22;944;51.574;6.980;2022-08-04T03:33:07;23.10;99.90
1888;DHT22;944;51.574;6.980;2022-08-04T03:36:28;23.10;99.90
1888;DHT22;944;51.574;6.980;2022-08-04T04:16:45;22.00;99.90
1888;DHT22;944;51.574;6.980;2022-08-04T04:26:33;22.00;99.90
1888;DHT22;944;51.574;6.980;2022-08-04T04:29:19;21.90;99.90
1888;DHT22;944;51.574;6.980;2022-08-04T04:32:08;21.90;99.90
1888;DHT22;944;51.574;6.980;2022-08-04T04:34:54;21.90;99.90
1888;DHT22;944;51.574;6.980;2022-08-04T04:37:49;21.90;99.90
1888;DHT22;944;51.574;6.980;2022-08-04T04:40:33;21.90;99.90
1888;DHT22;944;51.574;6.980;2022-08-04T04:43:28;21.70;99.90
1888;DHT22;944;51.574;6.980;2022-08-04T04:52:12;22.00;99.90
1888;DHT22;944;51.574;6.980;2022-08-04T05:23:49;23.10;99.90
1888;DHT22;944;51.574;6.980;2022-08-04T07:18:19;26.10;99.90
1888;DHT22;944;51.574;6.980;2022-08-04T07:20:53;26.60;99.90
1888;DHT22;944;51.574;6.980;2022-08-04T07:23:24;27.10;99.90
1888;DHT22;944;51.574;6.980;2022-08-04T07:26:05;27.70;99.90
1888;DHT22;944;51.574;6.980;2022-08-04T07:28:38;28.20;99.90
1888;DHT22;944;51.574;6.980;2022-08-04T07:31:09;28.70;99.90
1888;DHT22;944;51.574;6.980;2022-08-04T07:33:41;29.10;99.90
1888;DHT22;944;51.574;6.980;2022-08-04T07:36:10;29.70;99.90
1888;DHT22;944;51.574;6.980;2022-08-04T07:38:39;30.10;99.90
1888;DHT22;944;51.574;6.980;2022-08-04T07:41:11;30.60;99.90
1888;DHT22;944;51.574;6.980;2022-08-04T07:51:31;31.80;99.90
1888;DHT22;944;51.574;6.980;2022-08-04T08:02:24;31.80;99.90
1888;DHT22;944;51.574;6.980;2022-08-04T08:04:52;31.70;99.90
1888;DHT22;944;51.574;6.980;2022-08-04T08:07:21;31.60;99.90
1888;DHT22;944;51.574;6.980;2022-08-04T08:09:55;31.80;99.90
1888;DHT22;944;51.574;6.980;2022-08-04T08:13:00;32.00;99.90
1888;DHT22;944;51.574;6.980;2022-08-04T08:19:01;32.70;99.90
1888;DHT22;944;51.574;6.980;2022-08-04T08:21:28;32.90;99.90
1888;DHT22;944;51.574;6.980;2022-08-04T08:23:57;33.10;99.90
1888;DHT22;944;51.574;6.980;2022-08-04T08:26:40;33.10;99.90
1888;DHT22;944;51.574;6.980;2022-08-04T11:02:49;33.70;99.90
1888;DHT22;944;51.574;6.980;2022-08-04T11:05:51;33.80;99.90
1888;DHT22;944;51.574;6.980;2022-08-04T11:12:41;33.90;99.90
1888;DHT22;944;51.574;6.980;2022-08-04T12:10:08;31.90;99.90
1888;DHT22;944;51.574;6.980;2022-08-04T12:39:12;30.60;99.90
1888;DHT22;944;51.574;6.980;2022-08-04T12:42:18;30.30;99.90
1888;DHT22;944;51.574;6.980;2022-08-04T12:45:11;30.10;99.90
1888;DHT22;944;51.574;6.980;2022-08-04T12:56:05;29.90;99.90
1888;DHT22;944;51.574;6.980;2022-08-04T12:59:45;30.30;99.90
1888;DHT22;944;51.574;6.980;2022-08-04T13:06:35;30.60;99.90
1888;DHT22;944;51.574;6.980;2022-08-04T13:18:07;31.00;99.90
1888;DHT22;944;51.574;6.980;2022-08-04T13:55:45;30.80;99.90
1888;DHT22;944;51.574;6.980;2022-08-04T13:58:40;30.90;99.90
1888;DHT22;944;51.574;6.980;2022-08-04T14:01:21;30.90;99.90
1888;DHT22;944;51.574;6.980;2022-08-04T14:03:58;30.90;99.90
1888;DHT22;944;51.574;6.980;2022-08-04T14:22:16;30.70;99.90
1888;DHT22;944;51.574;6.980;2022-08-04T14:25:20;30.90;99.90
1888;DHT22;944;51.574;6.980;2022-08-04T14:35:18;30.80;99.90
1888;DHT22;944;51.574;6.980;2022-08-04T14:37:53;30.80;99.90
1888;DHT22;944;51.574;6.980;2022-08-04T14:40:32;30.50;99.90
1888;DHT22;944;51.574;6.980;2022-08-04T15:11:14;30.60;99.90
1888;DHT22;944;51.574;6.980;2022-08-04T15:13:49;30.50;99.90
1888;DHT22;944;51.574;6.980;2022-08-04T15:16:20;30.40;99.90
1888;DHT22;944;51.574;6.980;2022-08-04T15:19:07;30.30;99.90
1888;DHT22;944;51.574;6.980;2022-08-04T15:22:36;30.20;99.90
1888;DHT22;944;51.574;6.980;2022-08-04T15:36:21;29.60;99.90
1888;DHT22;944;51.574;6.980;2022-08-04T15:39:02;29.40;99.90
1888;DHT22;944;51.574;6.980;2022-08-04T15:45:21;29.50;99.90
1888;DHT22;944;51.574;6.980;2022-08-04T15:55:50;29.60;99.90
1888;DHT22;944;51.574;6.980;2022-08-04T15:59:07;29.60;99.90
